CCA0830 ZUUU-ZGSZ
Flight info
| Callsign | CCA0830 |
|---|---|
| Flight time | 1h 59m |
| Altitude | 31100 |
| Route | DBOR B330 KWE W181 DUDIT A599 POU W7 SAREX |
| Aircraft | A320/L-V/N |
Departure
| Time | 2026-04-27 13:06 |
|---|---|
| Airport | Chengdu Shuangliu International Airport (ZUUU) |
Arrival
| Time | 2026-04-27 15:05 |
|---|---|
| Airport | Shenzhen Bao'an International Airport (ZGSZ) |
| Time | Latitude | Longitude | Altitude | Speed | Heading |
|---|---|---|---|---|---|
| 2026-04-27 12:46 | 30.58527 | 103.95639 | 1647 ft | 0 kts | 200° |
| 2026-04-27 12:56 | 30.58527 | 103.95640 | 1647 ft | 1 kts | 200° |
| 2026-04-27 12:56 | 30.58540 | 103.95645 | 1647 ft | 3 kts | 200° |
| 2026-04-27 12:56 | 30.58559 | 103.95653 | 1647 ft | 3 kts | 200° |
| 2026-04-27 12:57 | 30.58577 | 103.95662 | 1647 ft | 3 kts | 216° |
| 2026-04-27 12:57 | 30.58590 | 103.95678 | 1647 ft | 3 kts | 248° |
| 2026-04-27 12:57 | 30.58594 | 103.95698 | 1647 ft | 2 kts | 287° |
| 2026-04-27 12:57 | 30.58592 | 103.95704 | 1647 ft | 1 kts | 292° |
| 2026-04-27 13:00 | 30.58592 | 103.95703 | 1647 ft | 1 kts | 292° |
| 2026-04-27 13:00 | 30.58600 | 103.95680 | 1647 ft | 5 kts | 292° |
| 2026-04-27 13:00 | 30.58620 | 103.95624 | 1647 ft | 10 kts | 292° |
| 2026-04-27 13:00 | 30.58642 | 103.95545 | 1647 ft | 10 kts | 282° |
| 2026-04-27 13:01 | 30.58658 | 103.95472 | 1647 ft | 10 kts | 287° |
| 2026-04-27 13:01 | 30.58687 | 103.95388 | 1647 ft | 13 kts | 292° |
| 2026-04-27 13:01 | 30.58737 | 103.95341 | 1647 ft | 10 kts | 18° |
| 2026-04-27 13:01 | 30.58817 | 103.95372 | 1647 ft | 14 kts | 22° |
| 2026-04-27 13:02 | 30.58919 | 103.95421 | 1647 ft | 18 kts | 22° |
| 2026-04-27 13:02 | 30.59039 | 103.95476 | 1647 ft | 17 kts | 21° |
| 2026-04-27 13:02 | 30.59160 | 103.95530 | 1647 ft | 21 kts | 21° |
| 2026-04-27 13:02 | 30.59277 | 103.95568 | 1646 ft | 15 kts | 350° |
| 2026-04-27 13:03 | 30.59313 | 103.95498 | 1646 ft | 5 kts | 293° |
| 2026-04-27 13:03 | 30.59313 | 103.95497 | 1646 ft | 0 kts | 293° |
| 2026-04-27 13:04 | 30.59316 | 103.95489 | 1646 ft | 3 kts | 291° |
| 2026-04-27 13:04 | 30.59329 | 103.95446 | 1646 ft | 8 kts | 290° |
| 2026-04-27 13:04 | 30.59317 | 103.95380 | 1647 ft | 10 kts | 223° |
| 2026-04-27 13:04 | 30.59244 | 103.95349 | 1647 ft | 22 kts | 198° |
| 2026-04-27 13:05 | 30.58891 | 103.95186 | 1649 ft | 86 kts | 202° |
| 2026-04-27 13:05 | 30.58208 | 103.94874 | 1646 ft | 123 kts | 202° |
| 2026-04-27 13:05 | 30.57280 | 103.94438 | 1647 ft | 163 kts | 202° |
| 2026-04-27 13:05 | 30.56249 | 103.93943 | 2130 ft | 149 kts | 203° |
| 2026-04-27 13:06 | 30.55259 | 103.93476 | 2282 ft | 164 kts | 204° |
| 2026-04-27 13:06 | 30.54175 | 103.92975 | 2422 ft | 172 kts | 204° |
| 2026-04-27 13:06 | 30.53016 | 103.92443 | 2899 ft | 185 kts | 205° |
| 2026-04-27 13:06 | 30.51789 | 103.91874 | 3553 ft | 198 kts | 203° |
| 2026-04-27 13:07 | 30.50453 | 103.91248 | 4072 ft | 221 kts | 202° |
| 2026-04-27 13:07 | 30.48950 | 103.90546 | 4529 ft | 246 kts | 201° |
| 2026-04-27 13:07 | 30.47311 | 103.89782 | 4932 ft | 273 kts | 200° |
| 2026-04-27 13:07 | 30.45476 | 103.88929 | 5532 ft | 294 kts | 200° |
| 2026-04-27 13:08 | 30.43627 | 103.88068 | 6381 ft | 301 kts | 199° |
| 2026-04-27 13:08 | 30.41689 | 103.87166 | 7469 ft | 299 kts | 200° |
| 2026-04-27 13:08 | 30.39804 | 103.86291 | 8569 ft | 298 kts | 200° |
| 2026-04-27 13:08 | 30.37870 | 103.85397 | 9686 ft | 298 kts | 200° |
| 2026-04-27 13:09 | 30.35963 | 103.84516 | 10556 ft | 305 kts | 200° |
| 2026-04-27 13:09 | 30.33913 | 103.83573 | 10980 ft | 329 kts | 200° |
| 2026-04-27 13:09 | 30.31713 | 103.82559 | 11367 ft | 349 kts | 200° |
| 2026-04-27 13:09 | 30.29438 | 103.81508 | 12185 ft | 354 kts | 200° |
| 2026-04-27 13:10 | 30.27146 | 103.80451 | 13125 ft | 356 kts | 201° |
| 2026-04-27 13:10 | 30.24815 | 103.79462 | 14004 ft | 358 kts | 193° |
| 2026-04-27 13:10 | 30.22344 | 103.79253 | 14836 ft | 359 kts | 174° |
| 2026-04-27 13:10 | 30.19947 | 103.80022 | 15600 ft | 364 kts | 157° |
| 2026-04-27 13:11 | 30.17653 | 103.81323 | 16242 ft | 370 kts | 155° |
| 2026-04-27 13:11 | 30.15348 | 103.82684 | 16946 ft | 374 kts | 155° |
| 2026-04-27 13:11 | 30.13019 | 103.84061 | 17634 ft | 377 kts | 155° |
| 2026-04-27 13:11 | 30.10666 | 103.85443 | 18304 ft | 381 kts | 156° |
| 2026-04-27 13:12 | 30.08288 | 103.86828 | 18877 ft | 385 kts | 156° |
| 2026-04-27 13:12 | 30.05885 | 103.88222 | 19443 ft | 389 kts | 156° |
| 2026-04-27 13:12 | 30.03455 | 103.89639 | 20005 ft | 393 kts | 156° |
| 2026-04-27 13:12 | 30.01003 | 103.91071 | 20556 ft | 397 kts | 156° |
| 2026-04-27 13:13 | 29.98533 | 103.92514 | 21122 ft | 400 kts | 156° |
| 2026-04-27 13:13 | 29.96031 | 103.93974 | 21658 ft | 405 kts | 156° |
| 2026-04-27 13:13 | 29.93542 | 103.95424 | 22193 ft | 409 kts | 156° |
| 2026-04-27 13:13 | 29.90989 | 103.96910 | 22732 ft | 413 kts | 156° |
| 2026-04-27 13:14 | 29.88412 | 103.98409 | 23268 ft | 417 kts | 156° |
| 2026-04-27 13:14 | 29.85804 | 103.99924 | 23721 ft | 421 kts | 156° |
| 2026-04-27 13:14 | 29.83183 | 104.01447 | 24204 ft | 424 kts | 156° |
| 2026-04-27 13:14 | 29.80547 | 104.03006 | 24658 ft | 428 kts | 153° |
| 2026-04-27 13:15 | 29.78093 | 104.04991 | 25078 ft | 436 kts | 142° |
| 2026-04-27 13:15 | 29.75979 | 104.07526 | 25497 ft | 444 kts | 131° |
| 2026-04-27 13:15 | 29.74253 | 104.10513 | 25908 ft | 450 kts | 124° |
| 2026-04-27 13:15 | 29.72609 | 104.13597 | 26302 ft | 454 kts | 124° |
| 2026-04-27 13:16 | 29.70951 | 104.16695 | 26712 ft | 457 kts | 125° |
| 2026-04-27 13:16 | 29.69271 | 104.19821 | 27096 ft | 460 kts | 125° |
| 2026-04-27 13:16 | 29.67578 | 104.22962 | 27474 ft | 464 kts | 125° |
| 2026-04-27 13:16 | 29.65870 | 104.26126 | 27852 ft | 467 kts | 125° |
| 2026-04-27 13:17 | 29.64152 | 104.29305 | 28221 ft | 470 kts | 125° |
| 2026-04-27 13:17 | 29.62418 | 104.32510 | 28580 ft | 473 kts | 125° |
| 2026-04-27 13:17 | 29.60675 | 104.35730 | 28926 ft | 477 kts | 126° |
| 2026-04-27 13:17 | 29.58916 | 104.38977 | 29288 ft | 479 kts | 125° |
| 2026-04-27 13:18 | 29.57145 | 104.42241 | 29600 ft | 483 kts | 126° |
| 2026-04-27 13:18 | 29.55365 | 104.45522 | 29929 ft | 486 kts | 126° |
| 2026-04-27 13:18 | 29.53570 | 104.48829 | 30233 ft | 489 kts | 126° |
| 2026-04-27 13:18 | 29.51765 | 104.52150 | 30540 ft | 492 kts | 126° |
| 2026-04-27 13:19 | 29.49947 | 104.55492 | 30841 ft | 494 kts | 126° |
| 2026-04-27 13:19 | 29.48143 | 104.58803 | 30998 ft | 496 kts | 125° |
| 2026-04-27 13:19 | 29.44492 | 104.65504 | 31025 ft | 494 kts | 125° |
| 2026-04-27 13:20 | 29.40842 | 104.72188 | 31028 ft | 495 kts | 126° |
| 2026-04-27 13:20 | 29.37182 | 104.78872 | 31018 ft | 495 kts | 126° |
| 2026-04-27 13:21 | 29.32955 | 104.84973 | 31018 ft | 485 kts | 143° |
| 2026-04-27 13:21 | 29.30245 | 104.87218 | 31017 ft | 478 kts | 155° |
| 2026-04-27 13:21 | 29.27273 | 104.88867 | 31017 ft | 474 kts | 161° |
| 2026-04-27 13:22 | 29.21272 | 104.91880 | 31019 ft | 474 kts | 161° |
| 2026-04-27 13:22 | 29.15234 | 104.94922 | 31014 ft | 474 kts | 161° |
| 2026-04-27 13:23 | 29.09176 | 104.97976 | 31016 ft | 474 kts | 161° |
| 2026-04-27 13:23 | 29.03187 | 105.01003 | 31020 ft | 474 kts | 161° |
| 2026-04-27 13:24 | 28.97160 | 105.04044 | 31018 ft | 473 kts | 161° |
| 2026-04-27 13:24 | 28.91127 | 105.07078 | 31016 ft | 473 kts | 161° |
| 2026-04-27 13:25 | 28.85096 | 105.10091 | 31021 ft | 473 kts | 161° |
| 2026-04-27 13:25 | 28.79067 | 105.13101 | 31020 ft | 473 kts | 161° |
| 2026-04-27 13:26 | 28.73179 | 105.16523 | 31025 ft | 475 kts | 156° |
| 2026-04-27 13:26 | 28.68350 | 105.19456 | 31023 ft | 476 kts | 156° |
| 2026-04-27 13:27 | 28.61555 | 105.23570 | 31028 ft | 476 kts | 156° |
| 2026-04-27 13:27 | 28.56659 | 105.26529 | 31031 ft | 475 kts | 156° |
| 2026-04-27 13:28 | 28.49863 | 105.30630 | 31029 ft | 476 kts | 156° |
| 2026-04-27 13:28 | 28.44965 | 105.33583 | 31032 ft | 475 kts | 156° |
| 2026-04-27 13:29 | 28.39121 | 105.37102 | 31040 ft | 475 kts | 156° |
| 2026-04-27 13:29 | 28.33314 | 105.40594 | 31046 ft | 475 kts | 156° |
| 2026-04-27 13:30 | 28.27465 | 105.44107 | 31052 ft | 475 kts | 156° |
| 2026-04-27 13:30 | 28.21614 | 105.47617 | 31054 ft | 475 kts | 156° |
| 2026-04-27 13:31 | 28.15767 | 105.51121 | 31056 ft | 475 kts | 156° |
| 2026-04-27 13:31 | 28.09918 | 105.54619 | 31066 ft | 475 kts | 156° |
| 2026-04-27 13:32 | 28.03828 | 105.57353 | 31063 ft | 468 kts | 169° |
| 2026-04-27 13:32 | 27.97454 | 105.58652 | 31068 ft | 464 kts | 176° |
| 2026-04-27 13:33 | 27.91092 | 105.59639 | 31076 ft | 464 kts | 176° |
| 2026-04-27 13:33 | 27.84686 | 105.60655 | 31068 ft | 465 kts | 175° |
| 2026-04-27 13:34 | 27.78394 | 105.62567 | 31076 ft | 472 kts | 162° |
| 2026-04-27 13:34 | 27.72483 | 105.65889 | 31069 ft | 476 kts | 155° |
| 2026-04-27 13:35 | 27.66659 | 105.69441 | 31075 ft | 475 kts | 156° |
| 2026-04-27 13:35 | 27.60704 | 105.72667 | 31076 ft | 474 kts | 159° |
| 2026-04-27 13:36 | 27.54737 | 105.75827 | 31076 ft | 474 kts | 159° |
| 2026-04-27 13:36 | 27.48780 | 105.79025 | 31079 ft | 474 kts | 158° |
| 2026-04-27 13:37 | 27.42867 | 105.82214 | 31078 ft | 474 kts | 158° |
| 2026-04-27 13:37 | 27.36880 | 105.85440 | 31079 ft | 474 kts | 158° |
| 2026-04-27 13:38 | 27.30962 | 105.88624 | 31077 ft | 474 kts | 158° |
| 2026-04-27 13:38 | 27.25006 | 105.91824 | 31075 ft | 474 kts | 158° |
| 2026-04-27 13:39 | 27.19048 | 105.95022 | 31075 ft | 474 kts | 158° |
| 2026-04-27 13:39 | 27.13095 | 105.98214 | 31078 ft | 474 kts | 158° |
| 2026-04-27 13:40 | 27.07175 | 106.01505 | 31071 ft | 477 kts | 152° |
| 2026-04-27 13:40 | 27.02034 | 106.06264 | 31068 ft | 485 kts | 134° |
| 2026-04-27 13:41 | 26.97909 | 106.12288 | 31071 ft | 487 kts | 129° |
| 2026-04-27 13:41 | 26.93856 | 106.18315 | 31070 ft | 487 kts | 130° |
| 2026-04-27 13:42 | 26.89777 | 106.24360 | 31076 ft | 486 kts | 130° |
| 2026-04-27 13:42 | 26.85688 | 106.30413 | 31074 ft | 486 kts | 130° |
| 2026-04-27 13:43 | 26.81602 | 106.36454 | 31075 ft | 486 kts | 130° |
| 2026-04-27 13:43 | 26.77515 | 106.42489 | 31073 ft | 486 kts | 130° |
| 2026-04-27 13:44 | 26.73431 | 106.48511 | 31080 ft | 486 kts | 130° |
| 2026-04-27 13:44 | 26.69345 | 106.54527 | 31083 ft | 485 kts | 130° |
| 2026-04-27 13:45 | 26.65284 | 106.60499 | 31086 ft | 486 kts | 130° |
| 2026-04-27 13:45 | 26.61193 | 106.66507 | 31091 ft | 486 kts | 130° |
| 2026-04-27 13:46 | 26.57100 | 106.72510 | 31093 ft | 486 kts | 130° |
| 2026-04-27 13:46 | 26.52988 | 106.78505 | 31092 ft | 485 kts | 132° |
| 2026-04-27 13:47 | 26.48333 | 106.83899 | 31092 ft | 482 kts | 139° |
| 2026-04-27 13:47 | 26.43545 | 106.89155 | 31091 ft | 482 kts | 139° |
| 2026-04-27 13:48 | 26.38762 | 106.94411 | 31081 ft | 482 kts | 139° |
| 2026-04-27 13:48 | 26.34015 | 106.99619 | 31074 ft | 482 kts | 139° |
| 2026-04-27 13:49 | 26.29239 | 107.04850 | 31068 ft | 481 kts | 139° |
| 2026-04-27 13:49 | 26.24475 | 107.10082 | 31060 ft | 481 kts | 138° |
| 2026-04-27 13:50 | 26.19717 | 107.15313 | 31057 ft | 480 kts | 138° |
| 2026-04-27 13:50 | 26.14956 | 107.20536 | 31053 ft | 480 kts | 138° |
| 2026-04-27 13:51 | 26.10195 | 107.25752 | 31042 ft | 480 kts | 138° |
| 2026-04-27 13:51 | 26.05439 | 107.30956 | 31039 ft | 479 kts | 138° |
| 2026-04-27 13:52 | 26.00675 | 107.36162 | 31034 ft | 479 kts | 138° |
| 2026-04-27 13:52 | 25.95917 | 107.41354 | 31030 ft | 480 kts | 138° |
| 2026-04-27 13:53 | 25.88789 | 107.49124 | 31024 ft | 480 kts | 138° |
| 2026-04-27 13:54 | 25.84010 | 107.54325 | 31022 ft | 481 kts | 138° |
| 2026-04-27 13:54 | 25.79230 | 107.59521 | 31020 ft | 481 kts | 138° |
| 2026-04-27 13:55 | 25.74441 | 107.64721 | 31019 ft | 481 kts | 138° |
| 2026-04-27 13:55 | 25.69652 | 107.69921 | 31015 ft | 482 kts | 137° |
| 2026-04-27 13:56 | 25.64880 | 107.75153 | 31016 ft | 482 kts | 137° |
| 2026-04-27 13:56 | 25.60130 | 107.80358 | 31010 ft | 483 kts | 137° |
| 2026-04-27 13:57 | 25.55344 | 107.85589 | 31010 ft | 484 kts | 137° |
| 2026-04-27 13:57 | 25.50555 | 107.90816 | 31005 ft | 483 kts | 137° |
| 2026-04-27 13:58 | 25.45282 | 107.95327 | 31005 ft | 478 kts | 156° |
| 2026-04-27 13:58 | 25.42189 | 107.96634 | 31004 ft | 473 kts | 168° |
| 2026-04-27 13:58 | 25.38964 | 107.97240 | 31004 ft | 469 kts | 176° |
| 2026-04-27 13:59 | 25.32510 | 107.97964 | 31001 ft | 469 kts | 177° |
| 2026-04-27 13:59 | 25.26260 | 107.98688 | 30992 ft | 469 kts | 177° |
| 2026-04-27 14:00 | 25.19771 | 107.99473 | 30994 ft | 469 kts | 176° |
| 2026-04-27 14:00 | 25.13274 | 108.00264 | 30994 ft | 469 kts | 176° |
| 2026-04-27 14:01 | 25.06786 | 108.01056 | 30988 ft | 469 kts | 176° |
| 2026-04-27 14:01 | 25.00302 | 108.01845 | 30982 ft | 469 kts | 176° |
| 2026-04-27 14:02 | 24.93821 | 108.02632 | 30971 ft | 468 kts | 176° |
| 2026-04-27 14:02 | 24.87385 | 108.03412 | 30974 ft | 468 kts | 176° |
| 2026-04-27 14:03 | 24.80907 | 108.04198 | 30971 ft | 469 kts | 176° |
| 2026-04-27 14:03 | 24.74424 | 108.04984 | 30967 ft | 469 kts | 176° |
| 2026-04-27 14:04 | 24.67929 | 108.05769 | 30970 ft | 468 kts | 176° |
| 2026-04-27 14:04 | 24.61444 | 108.06553 | 30971 ft | 470 kts | 177° |
| 2026-04-27 14:05 | 24.54948 | 108.07337 | 30966 ft | 469 kts | 177° |
| 2026-04-27 14:05 | 24.48454 | 108.08125 | 30968 ft | 469 kts | 176° |
| 2026-04-27 14:06 | 24.42010 | 108.08910 | 30969 ft | 469 kts | 176° |
| 2026-04-27 14:06 | 24.35528 | 108.09698 | 30970 ft | 468 kts | 176° |
| 2026-04-27 14:07 | 24.29052 | 108.10484 | 30970 ft | 468 kts | 176° |
| 2026-04-27 14:07 | 24.22576 | 108.11271 | 30974 ft | 467 kts | 176° |
| 2026-04-27 14:08 | 24.16110 | 108.12055 | 30970 ft | 468 kts | 176° |
| 2026-04-27 14:08 | 24.09637 | 108.12838 | 30973 ft | 468 kts | 176° |
| 2026-04-27 14:09 | 24.03158 | 108.13621 | 30975 ft | 468 kts | 176° |
| 2026-04-27 14:09 | 23.96683 | 108.14405 | 30976 ft | 469 kts | 176° |
| 2026-04-27 14:10 | 23.90412 | 108.16248 | 30976 ft | 477 kts | 156° |
| 2026-04-27 14:10 | 23.87588 | 108.18175 | 30977 ft | 481 kts | 144° |
| 2026-04-27 14:10 | 23.85144 | 108.20709 | 30985 ft | 488 kts | 132° |
| 2026-04-27 14:10 | 23.83194 | 108.23742 | 30979 ft | 490 kts | 121° |
| 2026-04-27 14:11 | 23.81822 | 108.27155 | 30981 ft | 493 kts | 109° |
| 2026-04-27 14:11 | 23.81087 | 108.30815 | 30983 ft | 495 kts | 97° |
| 2026-04-27 14:11 | 23.80850 | 108.34562 | 30978 ft | 496 kts | 93° |
| 2026-04-27 14:12 | 23.80574 | 108.42079 | 30983 ft | 495 kts | 93° |
| 2026-04-27 14:12 | 23.80206 | 108.49592 | 30983 ft | 495 kts | 94° |
| 2026-04-27 14:13 | 23.79780 | 108.57110 | 30985 ft | 495 kts | 94° |
| 2026-04-27 14:13 | 23.79341 | 108.64622 | 30985 ft | 495 kts | 94° |
| 2026-04-27 14:14 | 23.78903 | 108.72096 | 30983 ft | 496 kts | 94° |
| 2026-04-27 14:14 | 23.78459 | 108.79605 | 30983 ft | 496 kts | 94° |
| 2026-04-27 14:15 | 23.78012 | 108.87119 | 30981 ft | 496 kts | 94° |
| 2026-04-27 14:15 | 23.77559 | 108.94645 | 30981 ft | 496 kts | 94° |
| 2026-04-27 14:16 | 23.77103 | 109.02161 | 30979 ft | 496 kts | 94° |
| 2026-04-27 14:16 | 23.76648 | 109.09618 | 30981 ft | 496 kts | 94° |
| 2026-04-27 14:17 | 23.76083 | 109.15860 | 30980 ft | 496 kts | 101° |
| 2026-04-27 14:17 | 23.74613 | 109.23215 | 30982 ft | 496 kts | 103° |
| 2026-04-27 14:18 | 23.73133 | 109.30571 | 30983 ft | 496 kts | 103° |
| 2026-04-27 14:18 | 23.71650 | 109.37931 | 30984 ft | 497 kts | 103° |
| 2026-04-27 14:19 | 23.70161 | 109.45293 | 30984 ft | 497 kts | 103° |
| 2026-04-27 14:19 | 23.68702 | 109.52482 | 30987 ft | 497 kts | 103° |
| 2026-04-27 14:20 | 23.67203 | 109.59853 | 30987 ft | 498 kts | 103° |
| 2026-04-27 14:20 | 23.65694 | 109.67219 | 30994 ft | 498 kts | 103° |
| 2026-04-27 14:21 | 23.64181 | 109.74541 | 30997 ft | 498 kts | 103° |
| 2026-04-27 14:21 | 23.62655 | 109.81919 | 31000 ft | 498 kts | 103° |
| 2026-04-27 14:22 | 23.61127 | 109.89288 | 31006 ft | 498 kts | 103° |
| 2026-04-27 14:22 | 23.59596 | 109.96656 | 31003 ft | 498 kts | 103° |
| 2026-04-27 14:23 | 23.58060 | 110.04030 | 31010 ft | 499 kts | 103° |
| 2026-04-27 14:23 | 23.56519 | 110.11410 | 31012 ft | 499 kts | 103° |
| 2026-04-27 14:24 | 23.54986 | 110.18733 | 31011 ft | 499 kts | 103° |
| 2026-04-27 14:24 | 23.53439 | 110.26104 | 31009 ft | 499 kts | 103° |
| 2026-04-27 14:25 | 23.51887 | 110.33481 | 31012 ft | 499 kts | 103° |
| 2026-04-27 14:25 | 23.50350 | 110.40865 | 31013 ft | 499 kts | 103° |
| 2026-04-27 14:26 | 23.48857 | 110.48263 | 31010 ft | 499 kts | 103° |
| 2026-04-27 14:26 | 23.47369 | 110.55600 | 31019 ft | 499 kts | 103° |
| 2026-04-27 14:27 | 23.45862 | 110.62984 | 31006 ft | 499 kts | 103° |
| 2026-04-27 14:27 | 23.44351 | 110.70363 | 31010 ft | 499 kts | 103° |
| 2026-04-27 14:28 | 23.42818 | 110.77746 | 31018 ft | 499 kts | 103° |
| 2026-04-27 14:28 | 23.41259 | 110.85108 | 31016 ft | 499 kts | 103° |
| 2026-04-27 14:29 | 23.39699 | 110.92467 | 31014 ft | 499 kts | 103° |
| 2026-04-27 14:29 | 23.38151 | 110.99773 | 31003 ft | 498 kts | 103° |
| 2026-04-27 14:29 | 23.37372 | 111.03439 | 30849 ft | 498 kts | 103° |
| 2026-04-27 14:30 | 23.36590 | 111.07120 | 30661 ft | 498 kts | 103° |
| 2026-04-27 14:30 | 23.35810 | 111.10788 | 30481 ft | 497 kts | 103° |
| 2026-04-27 14:30 | 23.35032 | 111.14442 | 30292 ft | 495 kts | 103° |
| 2026-04-27 14:30 | 23.34264 | 111.18093 | 30110 ft | 494 kts | 103° |
| 2026-04-27 14:31 | 23.33522 | 111.21734 | 29915 ft | 492 kts | 102° |
| 2026-04-27 14:31 | 23.32785 | 111.25371 | 29704 ft | 491 kts | 102° |
| 2026-04-27 14:31 | 23.32051 | 111.28986 | 29486 ft | 489 kts | 102° |
| 2026-04-27 14:31 | 23.31316 | 111.32589 | 29279 ft | 487 kts | 102° |
| 2026-04-27 14:32 | 23.30580 | 111.36182 | 29069 ft | 486 kts | 102° |
| 2026-04-27 14:32 | 23.29844 | 111.39767 | 28857 ft | 484 kts | 103° |
| 2026-04-27 14:32 | 23.29110 | 111.43337 | 28657 ft | 482 kts | 102° |
| 2026-04-27 14:32 | 23.28378 | 111.46891 | 28445 ft | 481 kts | 103° |
| 2026-04-27 14:33 | 23.27648 | 111.50433 | 28248 ft | 479 kts | 103° |
| 2026-04-27 14:33 | 23.26919 | 111.53963 | 28042 ft | 478 kts | 103° |
| 2026-04-27 14:33 | 23.26181 | 111.57480 | 27845 ft | 476 kts | 103° |
| 2026-04-27 14:33 | 23.25439 | 111.60981 | 27642 ft | 475 kts | 103° |
| 2026-04-27 14:34 | 23.24697 | 111.64471 | 27444 ft | 473 kts | 103° |
| 2026-04-27 14:34 | 23.23959 | 111.67946 | 27251 ft | 471 kts | 103° |
| 2026-04-27 14:34 | 23.23222 | 111.71419 | 27059 ft | 470 kts | 103° |
| 2026-04-27 14:34 | 23.22497 | 111.74832 | 26874 ft | 469 kts | 103° |
| 2026-04-27 14:35 | 23.21763 | 111.78284 | 26674 ft | 467 kts | 103° |
| 2026-04-27 14:35 | 23.21031 | 111.81726 | 26479 ft | 466 kts | 103° |
| 2026-04-27 14:35 | 23.20305 | 111.85153 | 26292 ft | 465 kts | 103° |
| 2026-04-27 14:35 | 23.19594 | 111.88577 | 26103 ft | 463 kts | 103° |
| 2026-04-27 14:36 | 23.18890 | 111.91980 | 25915 ft | 462 kts | 103° |
| 2026-04-27 14:36 | 23.18184 | 111.95391 | 25729 ft | 461 kts | 103° |
| 2026-04-27 14:36 | 23.17480 | 111.98785 | 25546 ft | 459 kts | 103° |
| 2026-04-27 14:36 | 23.16776 | 112.02162 | 25357 ft | 458 kts | 103° |
| 2026-04-27 14:37 | 23.16073 | 112.05532 | 25178 ft | 456 kts | 103° |
| 2026-04-27 14:37 | 23.15371 | 112.08892 | 24997 ft | 456 kts | 103° |
| 2026-04-27 14:37 | 23.14668 | 112.12250 | 24816 ft | 454 kts | 103° |
| 2026-04-27 14:37 | 23.13977 | 112.15549 | 24638 ft | 452 kts | 103° |
| 2026-04-27 14:38 | 23.13279 | 112.18879 | 24457 ft | 452 kts | 103° |
| 2026-04-27 14:38 | 23.12581 | 112.22202 | 24281 ft | 450 kts | 103° |
| 2026-04-27 14:38 | 23.11885 | 112.25514 | 24103 ft | 449 kts | 103° |
| 2026-04-27 14:38 | 23.11190 | 112.28814 | 23930 ft | 448 kts | 103° |
| 2026-04-27 14:39 | 23.10498 | 112.32101 | 23758 ft | 446 kts | 103° |
| 2026-04-27 14:39 | 23.09804 | 112.35394 | 23580 ft | 445 kts | 103° |
| 2026-04-27 14:39 | 23.09113 | 112.38666 | 23384 ft | 444 kts | 103° |
| 2026-04-27 14:39 | 23.08425 | 112.41926 | 23173 ft | 442 kts | 103° |
| 2026-04-27 14:40 | 23.07737 | 112.45177 | 22966 ft | 440 kts | 103° |
| 2026-04-27 14:40 | 23.07126 | 112.48223 | 22770 ft | 439 kts | 100° |
| 2026-04-27 14:40 | 23.06809 | 112.51353 | 22572 ft | 438 kts | 94° |
| 2026-04-27 14:40 | 23.06607 | 112.54656 | 22368 ft | 437 kts | 94° |
| 2026-04-27 14:41 | 23.06392 | 112.57937 | 22163 ft | 435 kts | 94° |
| 2026-04-27 14:41 | 23.06172 | 112.61205 | 21961 ft | 433 kts | 94° |
| 2026-04-27 14:41 | 23.05951 | 112.64458 | 21757 ft | 430 kts | 95° |
| 2026-04-27 14:41 | 23.05730 | 112.67697 | 21567 ft | 430 kts | 94° |
| 2026-04-27 14:42 | 23.05510 | 112.70937 | 21366 ft | 429 kts | 95° |
| 2026-04-27 14:42 | 23.05296 | 112.74078 | 21171 ft | 427 kts | 95° |
| 2026-04-27 14:42 | 23.05077 | 112.77287 | 20974 ft | 426 kts | 95° |
| 2026-04-27 14:42 | 23.04858 | 112.80488 | 20784 ft | 424 kts | 95° |
| 2026-04-27 14:43 | 23.04639 | 112.83675 | 20598 ft | 423 kts | 95° |
| 2026-04-27 14:43 | 23.04420 | 112.86855 | 20402 ft | 421 kts | 95° |
| 2026-04-27 14:43 | 23.04202 | 112.90022 | 20212 ft | 420 kts | 95° |
| 2026-04-27 14:43 | 23.03983 | 112.93180 | 20020 ft | 419 kts | 95° |
| 2026-04-27 14:44 | 23.03765 | 112.96323 | 19835 ft | 417 kts | 95° |
| 2026-04-27 14:44 | 23.03546 | 112.99463 | 19629 ft | 416 kts | 95° |
| 2026-04-27 14:44 | 23.03327 | 113.02599 | 19306 ft | 416 kts | 95° |
| 2026-04-27 14:44 | 23.03109 | 113.05719 | 18848 ft | 413 kts | 95° |
| 2026-04-27 14:45 | 23.02892 | 113.08809 | 18395 ft | 407 kts | 95° |
| 2026-04-27 14:45 | 23.02678 | 113.11853 | 17917 ft | 403 kts | 95° |
| 2026-04-27 14:45 | 23.02464 | 113.14884 | 17399 ft | 402 kts | 95° |
| 2026-04-27 14:45 | 23.02080 | 113.17868 | 16898 ft | 395 kts | 104° |
| 2026-04-27 14:46 | 23.01282 | 113.20694 | 16401 ft | 389 kts | 114° |
| 2026-04-27 14:46 | 23.00114 | 113.23337 | 15922 ft | 386 kts | 120° |
| 2026-04-27 14:46 | 22.98890 | 113.25874 | 15450 ft | 382 kts | 120° |
| 2026-04-27 14:46 | 22.97674 | 113.28419 | 14977 ft | 378 kts | 120° |
| 2026-04-27 14:47 | 22.96463 | 113.30961 | 14510 ft | 377 kts | 120° |
| 2026-04-27 14:47 | 22.95279 | 113.33447 | 14054 ft | 373 kts | 120° |
| 2026-04-27 14:47 | 22.94097 | 113.35927 | 13595 ft | 368 kts | 120° |
| 2026-04-27 14:47 | 22.92926 | 113.38380 | 13085 ft | 364 kts | 120° |
| 2026-04-27 14:48 | 22.91769 | 113.40800 | 12583 ft | 359 kts | 120° |
| 2026-04-27 14:48 | 22.89390 | 113.45478 | 11594 ft | 348 kts | 132° |
| 2026-04-27 14:48 | 22.87597 | 113.47156 | 11139 ft | 337 kts | 154° |
| 2026-04-27 14:49 | 22.85439 | 113.47969 | 10779 ft | 324 kts | 174° |
| 2026-04-27 14:49 | 22.83370 | 113.47985 | 10452 ft | 314 kts | 186° |
| 2026-04-27 14:49 | 22.81274 | 113.47826 | 10097 ft | 303 kts | 186° |
| 2026-04-27 14:49 | 22.79192 | 113.47667 | 9747 ft | 290 kts | 186° |
| 2026-04-27 14:50 | 22.77249 | 113.47520 | 9365 ft | 278 kts | 186° |
| 2026-04-27 14:50 | 22.75358 | 113.47378 | 8975 ft | 268 kts | 186° |
| 2026-04-27 14:50 | 22.73526 | 113.47241 | 8602 ft | 258 kts | 186° |
| 2026-04-27 14:50 | 22.71760 | 113.47109 | 8233 ft | 250 kts | 185° |
| 2026-04-27 14:51 | 22.70042 | 113.46981 | 7868 ft | 243 kts | 185° |
| 2026-04-27 14:51 | 22.68377 | 113.46857 | 7502 ft | 237 kts | 185° |
| 2026-04-27 14:51 | 22.66752 | 113.46737 | 7147 ft | 231 kts | 185° |
| 2026-04-27 14:51 | 22.65692 | 113.46658 | 6906 ft | 228 kts | 185° |
| 2026-04-27 14:52 | 22.63616 | 113.46517 | 6433 ft | 223 kts | 179° |
| 2026-04-27 14:52 | 22.62136 | 113.46963 | 6070 ft | 218 kts | 149° |
| 2026-04-27 14:52 | 22.61124 | 113.48126 | 5702 ft | 217 kts | 118° |
| 2026-04-27 14:52 | 22.60787 | 113.49716 | 5345 ft | 222 kts | 94° |
| 2026-04-27 14:53 | 22.60755 | 113.51389 | 4985 ft | 220 kts | 94° |
| 2026-04-27 14:53 | 22.60720 | 113.53031 | 4619 ft | 217 kts | 94° |
| 2026-04-27 14:53 | 22.60771 | 113.54654 | 4240 ft | 217 kts | 77° |
| 2026-04-27 14:53 | 22.61540 | 113.56049 | 4021 ft | 220 kts | 44° |
| 2026-04-27 14:54 | 22.62922 | 113.56753 | 3869 ft | 224 kts | 9° |
| 2026-04-27 14:54 | 22.64481 | 113.56854 | 3810 ft | 225 kts | 1° |
| 2026-04-27 14:54 | 22.66045 | 113.56856 | 3806 ft | 223 kts | 360° |
| 2026-04-27 14:54 | 22.67585 | 113.56854 | 3568 ft | 220 kts | 0° |
| 2026-04-27 14:55 | 22.69125 | 113.56872 | 3357 ft | 222 kts | 1° |
| 2026-04-27 14:55 | 22.70656 | 113.56907 | 3275 ft | 223 kts | 1° |
| 2026-04-27 14:55 | 22.72228 | 113.56954 | 3176 ft | 222 kts | 2° |
| 2026-04-27 14:55 | 22.73750 | 113.57005 | 3060 ft | 223 kts | 2° |
| 2026-04-27 14:56 | 22.75306 | 113.57055 | 2987 ft | 223 kts | 2° |
| 2026-04-27 14:56 | 22.76856 | 113.57101 | 2926 ft | 223 kts | 2° |
| 2026-04-27 14:56 | 22.78401 | 113.57148 | 2872 ft | 221 kts | 2° |
| 2026-04-27 14:56 | 22.79938 | 113.57194 | 2840 ft | 221 kts | 2° |
| 2026-04-27 14:57 | 22.81467 | 113.57242 | 2747 ft | 219 kts | 2° |
| 2026-04-27 14:57 | 22.82945 | 113.57606 | 2631 ft | 219 kts | 31° |
| 2026-04-27 14:57 | 22.83990 | 113.58748 | 2551 ft | 212 kts | 61° |
| 2026-04-27 14:57 | 22.84666 | 113.60119 | 2484 ft | 199 kts | 67° |
| 2026-04-27 14:58 | 22.85237 | 113.61440 | 2328 ft | 190 kts | 69° |
| 2026-04-27 14:58 | 22.85804 | 113.62751 | 2314 ft | 193 kts | 68° |
| 2026-04-27 14:58 | 22.86377 | 113.64038 | 2310 ft | 192 kts | 69° |
| 2026-04-27 14:58 | 22.86578 | 113.65426 | 2314 ft | 186 kts | 103° |
| 2026-04-27 14:59 | 22.86042 | 113.66664 | 2319 ft | 181 kts | 132° |
| 2026-04-27 14:59 | 22.85129 | 113.67535 | 2313 ft | 179 kts | 148° |
| 2026-04-27 14:59 | 22.84029 | 113.68236 | 2317 ft | 180 kts | 153° |
| 2026-04-27 14:59 | 22.82926 | 113.68848 | 2315 ft | 176 kts | 154° |
| 2026-04-27 15:00 | 22.81828 | 113.69453 | 2316 ft | 178 kts | 154° |
| 2026-04-27 15:00 | 22.80723 | 113.70063 | 2316 ft | 178 kts | 154° |
| 2026-04-27 15:00 | 22.79614 | 113.70675 | 2318 ft | 179 kts | 154° |
| 2026-04-27 15:00 | 22.78505 | 113.71288 | 2319 ft | 179 kts | 154° |
| 2026-04-27 15:01 | 22.77402 | 113.71897 | 2318 ft | 177 kts | 154° |
| 2026-04-27 15:01 | 22.76308 | 113.72500 | 2297 ft | 173 kts | 154° |
| 2026-04-27 15:01 | 22.75311 | 113.73051 | 2129 ft | 148 kts | 154° |
| 2026-04-27 15:01 | 22.74464 | 113.73518 | 1939 ft | 130 kts | 153° |
| 2026-04-27 15:02 | 22.73687 | 113.73946 | 1779 ft | 126 kts | 153° |
| 2026-04-27 15:02 | 22.72913 | 113.74373 | 1624 ft | 124 kts | 153° |
| 2026-04-27 15:02 | 22.72147 | 113.74795 | 1456 ft | 122 kts | 153° |
| 2026-04-27 15:02 | 22.71370 | 113.75224 | 1303 ft | 125 kts | 153° |
| 2026-04-27 15:03 | 22.70590 | 113.75654 | 1127 ft | 126 kts | 153° |
| 2026-04-27 15:03 | 22.69810 | 113.76084 | 973 ft | 126 kts | 152° |
| 2026-04-27 15:03 | 22.69238 | 113.76399 | 854 ft | 126 kts | 152° |
| 2026-04-27 15:03 | 22.68455 | 113.76831 | 703 ft | 128 kts | 152° |
| 2026-04-27 15:04 | 22.67657 | 113.77270 | 532 ft | 128 kts | 152° |
| 2026-04-27 15:04 | 22.66852 | 113.77712 | 374 ft | 132 kts | 152° |
| 2026-04-27 15:04 | 22.66051 | 113.78153 | 208 ft | 130 kts | 152° |
| 2026-04-27 15:04 | 22.65236 | 113.78589 | 36 ft | 131 kts | 152° |
| 2026-04-27 15:05 | 22.64526 | 113.79001 | 15 ft | 94 kts | 149° |
| 2026-04-27 15:05 | 22.64126 | 113.79228 | 15 ft | 36 kts | 157° |
| 2026-04-27 15:05 | 22.64042 | 113.79268 | 16 ft | 10 kts | 156° |
| 2026-04-27 15:05 | 22.63962 | 113.79314 | 15 ft | 15 kts | 140° |
| 2026-04-27 15:06 | 22.63905 | 113.79368 | 15 ft | 17 kts | 135° |
| 2026-04-27 15:06 | 22.63846 | 113.79448 | 17 ft | 13 kts | 124° |
| 2026-04-27 15:06 | 22.63806 | 113.79515 | 15 ft | 10 kts | 121° |
| 2026-04-27 15:06 | 22.63761 | 113.79592 | 16 ft | 11 kts | 122° |
| 2026-04-27 15:07 | 22.63745 | 113.79675 | 15 ft | 10 kts | 71° |
| 2026-04-27 15:07 | 22.63738 | 113.79751 | 15 ft | 11 kts | 139° |
| 2026-04-27 15:07 | 22.63704 | 113.79770 | 17 ft | 2 kts | 152° |
| 2026-04-27 15:07 | 22.63700 | 113.79772 | 16 ft | 2 kts | 152° |
| 2026-04-27 15:08 | 22.63673 | 113.79788 | 15 ft | 7 kts | 152° |
| 2026-04-27 15:08 | 22.63617 | 113.79815 | 15 ft | 11 kts | 156° |
| 2026-04-27 15:08 | 22.63556 | 113.79847 | 15 ft | 11 kts | 153° |
| 2026-04-27 15:08 | 22.63486 | 113.79889 | 15 ft | 11 kts | 154° |
| 2026-04-27 15:09 | 22.63418 | 113.79925 | 15 ft | 12 kts | 154° |
| 2026-04-27 15:09 | 22.63335 | 113.79970 | 15 ft | 13 kts | 152° |
| 2026-04-27 15:09 | 22.63254 | 113.80016 | 15 ft | 12 kts | 148° |
| 2026-04-27 15:09 | 22.63251 | 113.80091 | 17 ft | 9 kts | 64° |
| 2026-04-27 15:10 | 22.63281 | 113.80157 | 15 ft | 6 kts | 64° |
| 2026-04-27 15:10 | 22.63272 | 113.80195 | 16 ft | 7 kts | 154° |
| 2026-04-27 15:10 | 22.63255 | 113.80205 | 15 ft | 2 kts | 149° |
| 2026-04-27 15:10 | 22.63236 | 113.80216 | 15 ft | 0 kts | 151° |